createdAt,value
2023-01-13T00:01:24.337Z,4.20
2023-01-13T00:03:51.328Z,4.25
2023-01-13T00:06:29.263Z,4.30
2023-01-13T00:08:56.212Z,3.97
2023-01-13T00:11:23.545Z,3.83
2023-01-13T00:13:50.449Z,4.30
2023-01-13T00:16:19.011Z,4.00
2023-01-13T00:18:46.941Z,4.17
2023-01-13T00:21:18.254Z,3.92
2023-01-13T00:23:45.491Z,4.63
2023-01-13T00:26:18.656Z,3.80
2023-01-13T00:28:45.502Z,4.10
2023-01-13T00:31:14.910Z,3.97
2023-01-13T00:33:42.321Z,4.00
2023-01-13T00:36:12.899Z,4.03
2023-01-13T00:38:40.410Z,4.13
2023-01-13T00:41:09.734Z,4.25
2023-01-13T00:43:37.273Z,4.10
2023-01-13T00:46:06.471Z,3.63
2023-01-13T00:48:34.664Z,4.13
2023-01-13T00:51:10.709Z,3.75
2023-01-13T00:53:45.826Z,3.63
2023-01-13T00:56:16.658Z,4.38
2023-01-13T00:58:45.146Z,3.80
2023-01-13T01:01:15.623Z,4.20
2023-01-13T01:03:42.584Z,4.10
2023-01-13T01:06:13.480Z,4.23
2023-01-13T01:08:41.135Z,4.07
2023-01-13T01:11:16.554Z,4.27
2023-01-13T01:13:43.873Z,3.72
2023-01-13T01:16:14.420Z,4.25
2023-01-13T01:18:43.946Z,4.57
2023-01-13T01:21:11.561Z,3.70
2023-01-13T01:23:39.783Z,3.65
2023-01-13T01:26:09.091Z,4.22
2023-01-13T01:28:35.844Z,4.93
2023-01-13T01:31:18.569Z,4.78
2023-01-13T01:33:47.446Z,4.20
2023-01-13T01:36:16.146Z,4.07
2023-01-13T01:38:43.450Z,5.18
2023-01-13T01:41:19.802Z,4.40
2023-01-13T01:43:59.547Z,4.05
2023-01-13T01:46:31.899Z,4.95
2023-01-13T01:49:19.866Z,4.07
2023-01-13T01:51:55.409Z,5.03
2023-01-13T01:54:28.471Z,4.97
2023-01-13T01:56:55.588Z,4.20
2023-01-13T01:59:27.462Z,3.67
2023-01-13T02:01:56.270Z,5.10
2023-01-13T02:04:28.096Z,3.70
2023-01-13T02:06:56.911Z,5.35
2023-01-13T02:09:26.330Z,5.10
2023-01-13T02:12:11.528Z,4.25
2023-01-13T02:14:40.888Z,4.37
2023-01-13T02:17:22.049Z,4.75
2023-01-13T02:20:28.588Z,4.82
2023-01-13T02:23:36.028Z,5.10
2023-01-13T02:26:21.483Z,5.05
2023-01-13T02:29:44.129Z,4.13
2023-01-13T02:32:22.339Z,4.37
2023-01-13T02:35:02.651Z,4.50
2023-01-13T02:37:33.524Z,4.32
2023-01-13T02:40:08.739Z,4.35
2023-01-13T02:42:59.849Z,4.40
2023-01-13T02:45:32.100Z,4.13
2023-01-13T02:48:01.638Z,4.13
2023-01-13T02:50:35.877Z,4.22
2023-01-13T02:53:12.853Z,4.70
2023-01-13T02:55:48.526Z,4.20
2023-01-13T02:58:19.907Z,4.80
2023-01-13T03:00:48.972Z,4.15
2023-01-13T03:03:15.705Z,4.03
2023-01-13T03:05:46.305Z,4.13
2023-01-13T03:08:34.049Z,4.53
2023-01-13T03:11:08.155Z,4.07
2023-01-13T03:14:10.909Z,4.03
2023-01-13T03:16:52.452Z,4.80
2023-01-13T03:19:57.084Z,4.65
2023-01-13T03:22:47.922Z,4.72
2023-01-13T03:25:32.300Z,4.53
2023-01-13T03:28:10.615Z,4.25
2023-01-13T03:30:44.979Z,3.83
2023-01-13T03:33:57.624Z,4.30
2023-01-13T03:36:27.902Z,3.85
2023-01-13T03:39:02.979Z,4.10
2023-01-13T03:41:41.582Z,3.40
2023-01-13T03:44:32.961Z,3.67
2023-01-13T03:47:24.872Z,4.05
2023-01-13T03:50:07.259Z,3.77
2023-01-13T03:52:37.148Z,3.45
2023-01-13T03:55:07.901Z,3.60
2023-01-13T03:57:41.728Z,3.40
2023-01-13T04:00:12.449Z,3.38
2023-01-13T04:02:53.882Z,2.80
2023-01-13T04:05:20.833Z,3.13
2023-01-13T04:08:02.824Z,2.40
2023-01-13T04:10:38.213Z,2.25
2023-01-13T04:13:14.576Z,2.10
2023-01-13T04:15:44.625Z,1.90
2023-01-13T04:18:14.523Z,1.83
2023-01-13T04:20:42.962Z,1.42
2023-01-13T04:23:10.684Z,1.75
2023-01-13T04:25:37.722Z,1.53
2023-01-13T04:28:04.659Z,1.83
2023-01-13T04:30:31.662Z,1.60
2023-01-13T04:32:58.427Z,1.90
2023-01-13T04:35:25.600Z,1.88
2023-01-13T04:37:52.479Z,1.40
2023-01-13T04:40:19.294Z,1.95
2023-01-13T04:42:46.028Z,1.50
2023-01-13T04:45:13.570Z,1.40
2023-01-13T04:47:41.837Z,1.63
2023-01-13T04:50:09.741Z,1.63
2023-01-13T04:52:36.511Z,1.42
2023-01-13T04:55:03.757Z,1.40
2023-01-13T04:57:30.595Z,1.70
2023-01-13T04:59:57.395Z,1.65
2023-01-13T05:02:24.144Z,1.70
2023-01-13T05:04:50.983Z,2.40
2023-01-13T05:07:18.426Z,1.85
2023-01-13T05:09:45.178Z,2.00
2023-01-13T05:12:51.423Z,2.22
2023-01-13T05:15:36.790Z,2.45
2023-01-13T05:18:03.761Z,2.08
2023-01-13T05:20:30.445Z,2.03
2023-01-13T05:23:15.765Z,2.30
2023-01-13T05:25:44.495Z,2.30
2023-01-13T05:28:11.686Z,2.10
2023-01-13T05:30:42.510Z,2.20
2023-01-13T05:33:10.426Z,2.00
2023-01-13T05:35:41.534Z,2.30
2023-01-13T05:38:09.112Z,2.40
2023-01-13T05:40:58.158Z,2.08
2023-01-13T05:43:26.792Z,2.92
2023-01-13T05:46:09.018Z,2.60
2023-01-13T05:48:41.024Z,3.13
2023-01-13T05:51:10.772Z,2.40
2023-01-13T05:53:37.736Z,2.47
2023-01-13T05:56:06.093Z,2.30
2023-01-13T05:58:32.949Z,2.30
2023-01-13T06:01:05.289Z,2.38
2023-01-13T06:03:32.151Z,2.30
2023-01-13T06:06:01.469Z,2.63
2023-01-13T06:08:28.584Z,3.03
2023-01-13T06:10:55.389Z,2.40
2023-01-13T06:13:22.278Z,2.15
2023-01-13T06:15:49.063Z,2.65
2023-01-13T06:18:15.900Z,2.30
2023-01-13T06:20:42.654Z,2.33
2023-01-13T06:23:11.679Z,2.10
2023-01-13T06:25:47.867Z,3.50
2023-01-13T06:28:14.690Z,2.70
2023-01-13T06:30:49.053Z,2.80
2023-01-13T06:33:23.011Z,2.80
2023-01-13T06:35:57.978Z,2.85
2023-01-13T06:38:27.641Z,3.03
2023-01-13T06:40:57.109Z,3.22
2023-01-13T06:43:24.613Z,2.72
2023-01-13T06:45:53.397Z,2.30
2023-01-13T06:48:23.484Z,2.60
2023-01-13T06:50:50.329Z,3.08
2023-01-13T06:53:17.045Z,2.78
2023-01-13T06:55:43.870Z,2.80
2023-01-13T06:58:10.957Z,2.63
2023-01-13T07:00:38.090Z,2.90
2023-01-13T07:03:16.048Z,3.35
2023-01-13T07:05:50.562Z,2.78
2023-01-13T07:08:17.369Z,2.78
2023-01-13T07:10:44.112Z,3.17
2023-01-13T07:13:29.476Z,2.78
2023-01-13T07:16:01.878Z,2.80
2023-01-13T07:18:31.672Z,2.75
2023-01-13T07:21:01.454Z,3.08
2023-01-13T07:23:33.125Z,3.35
2023-01-13T07:26:00.594Z,2.83
2023-01-13T07:28:28.832Z,3.17
2023-01-13T07:30:55.945Z,2.77
2023-01-13T07:33:23.115Z,3.10
2023-01-13T07:36:00.408Z,2.80
2023-01-13T07:38:27.500Z,3.33
2023-01-13T07:40:54.735Z,3.80
2023-01-13T07:43:33.943Z,3.42
2023-01-13T07:46:06.279Z,3.27
2023-01-13T07:48:34.599Z,3.10
2023-01-13T07:51:05.599Z,3.28
2023-01-13T07:53:33.235Z,3.20
2023-01-13T07:56:00.888Z,3.05
2023-01-13T07:58:28.757Z,3.10
2023-01-13T08:00:56.440Z,3.30
2023-01-13T08:03:24.022Z,2.90
2023-01-13T08:05:51.005Z,3.17
2023-01-13T08:08:17.992Z,3.15
2023-01-13T08:10:45.093Z,3.35
2023-01-13T08:13:17.509Z,3.28
2023-01-13T08:15:45.242Z,3.05
2023-01-13T08:18:12.344Z,3.63
2023-01-13T08:20:39.258Z,3.45
2023-01-13T08:23:07.384Z,2.90
2023-01-13T08:25:34.391Z,3.33
2023-01-13T08:28:01.171Z,3.17
2023-01-13T08:30:28.501Z,3.35
2023-01-13T08:32:55.431Z,3.28
2023-01-13T08:35:22.945Z,3.67
2023-01-13T08:37:50.978Z,3.25
2023-01-13T08:40:19.153Z,3.10
2023-01-13T08:42:48.434Z,3.03
2023-01-13T08:45:15.420Z,3.42
2023-01-13T08:47:42.166Z,3.42
2023-01-13T08:50:10.091Z,3.28
2023-01-13T08:52:36.975Z,3.43
2023-01-13T08:55:04.204Z,3.88
2023-01-13T08:57:31.057Z,3.33
2023-01-13T08:59:57.869Z,4.10
2023-01-13T09:02:25.562Z,3.60
2023-01-13T09:04:53.206Z,3.30
2023-01-13T09:07:20.318Z,3.13
2023-01-13T09:09:47.177Z,3.20
2023-01-13T09:12:34.120Z,3.33
2023-01-13T09:15:02.151Z,3.60
2023-01-13T09:17:28.906Z,3.15
2023-01-13T09:19:55.777Z,3.45
2023-01-13T09:22:26.914Z,3.13
2023-01-13T09:24:54.893Z,3.70
2023-01-13T09:27:22.316Z,3.15
2023-01-13T09:29:49.818Z,4.00
2023-01-13T09:32:16.614Z,3.70
2023-01-13T09:35:01.464Z,3.20
2023-01-13T09:37:30.199Z,3.42
2023-01-13T09:39:57.081Z,3.23
2023-01-13T09:43:17.902Z,3.20
2023-01-13T09:45:58.136Z,2.88
2023-01-13T09:48:30.328Z,3.33
2023-01-13T09:51:18.705Z,3.35
2023-01-13T09:53:52.333Z,3.42
2023-01-13T09:56:19.167Z,3.33
2023-01-13T09:58:47.960Z,3.35
2023-01-13T10:01:34.600Z,3.53
2023-01-13T10:04:10.127Z,3.30
2023-01-13T10:06:39.581Z,3.72
2023-01-13T10:09:06.523Z,3.55
2023-01-13T10:11:56.798Z,3.03
2023-01-13T10:14:47.708Z,3.20
2023-01-13T10:17:36.384Z,2.83
2023-01-13T10:20:18.276Z,3.63
2023-01-13T10:23:27.138Z,3.13
2023-01-13T10:26:34.604Z,3.03
2023-01-13T10:29:01.365Z,2.95
2023-01-13T10:31:28.197Z,3.30
2023-01-13T10:34:05.936Z,3.25
2023-01-13T10:36:33.599Z,2.85
2023-01-13T10:39:20.259Z,3.50
2023-01-13T10:41:46.965Z,3.05
2023-01-13T10:44:18.938Z,2.70
2023-01-13T10:46:57.648Z,3.10
2023-01-13T10:49:38.651Z,3.05
2023-01-13T10:52:26.600Z,3.33
2023-01-13T10:54:54.994Z,3.08
2023-01-13T10:57:23.660Z,3.10
2023-01-13T10:59:51.380Z,3.03
2023-01-13T11:02:31.090Z,3.33
2023-01-13T11:05:02.545Z,2.95
2023-01-13T11:07:32.181Z,2.88
2023-01-13T11:10:23.893Z,2.63
2023-01-13T11:12:54.315Z,2.80
2023-01-13T11:15:24.472Z,2.88
2023-01-13T11:18:04.995Z,2.85
2023-01-13T11:20:38.884Z,2.80
2023-01-13T11:23:17.740Z,2.40
2023-01-13T11:25:48.653Z,2.33
2023-01-13T11:28:45.217Z,2.33
2023-01-13T11:31:30.096Z,2.95
2023-01-13T11:34:31.129Z,2.47
2023-01-13T11:37:00.885Z,2.47
2023-01-13T11:39:34.689Z,2.78
2023-01-13T11:42:24.365Z,2.40
2023-01-13T11:44:56.591Z,2.80
2023-01-13T11:47:26.020Z,2.53
2023-01-13T11:49:52.861Z,2.40
2023-01-13T11:52:42.728Z,2.65
2023-01-13T11:55:30.909Z,2.17
2023-01-13T11:58:11.216Z,2.20
2023-01-13T12:00:43.843Z,2.22
2023-01-13T12:03:38.328Z,2.50
2023-01-13T12:06:21.554Z,2.50
2023-01-13T12:09:11.928Z,2.60
2023-01-13T12:12:19.103Z,2.33
2023-01-13T12:15:10.196Z,2.38
2023-01-13T12:17:57.156Z,2.63
2023-01-13T12:21:01.463Z,3.03
2023-01-13T12:23:33.553Z,2.50
2023-01-13T12:26:22.968Z,2.67
2023-01-13T12:28:55.708Z,2.08
2023-01-13T12:31:25.095Z,2.53
2023-01-13T12:34:00.748Z,2.80
2023-01-13T12:36:55.089Z,2.55
2023-01-13T12:39:43.180Z,2.15
2023-01-13T12:42:43.506Z,2.72
2023-01-13T12:45:10.383Z,2.20
2023-01-13T12:47:47.450Z,2.75
2023-01-13T12:50:36.365Z,2.28
2023-01-13T12:53:30.826Z,2.20
2023-01-13T12:56:26.607Z,2.30
2023-01-13T12:59:13.296Z,2.33
2023-01-13T13:01:40.129Z,2.55
2023-01-13T13:04:10.084Z,2.10
2023-01-13T13:06:41.526Z,2.20
2023-01-13T13:09:21.129Z,2.05
2023-01-13T13:11:58.209Z,2.00
2023-01-13T13:14:37.127Z,2.25
2023-01-13T13:17:28.893Z,2.10
2023-01-13T13:19:57.113Z,2.00
2023-01-13T13:22:26.650Z,2.45
2023-01-13T13:24:56.381Z,2.10
2023-01-13T13:27:40.851Z,2.03
2023-01-13T13:30:14.966Z,2.10
2023-01-13T13:33:15.551Z,2.07
2023-01-13T13:35:57.666Z,2.00
2023-01-13T13:39:20.869Z,1.80
2023-01-13T13:42:09.276Z,1.98
2023-01-13T13:45:06.182Z,1.90
2023-01-13T13:47:39.547Z,1.80
2023-01-13T13:50:19.552Z,2.20
2023-01-13T13:53:00.349Z,2.17
2023-01-13T13:55:28.389Z,2.60
2023-01-13T13:57:57.480Z,2.35
2023-01-13T14:00:33.198Z,2.03
2023-01-13T14:03:03.179Z,1.83
2023-01-13T14:05:34.806Z,2.58
2023-01-13T14:08:09.008Z,2.80
2023-01-13T14:10:38.193Z,2.45
2023-01-13T14:13:25.567Z,2.08
2023-01-13T14:16:01.055Z,3.10
2023-01-13T14:18:30.687Z,2.70
2023-01-13T14:21:18.298Z,2.80
2023-01-13T14:23:58.307Z,2.22
2023-01-13T14:26:30.637Z,2.17
2023-01-13T14:28:59.632Z,2.50
2023-01-13T14:31:27.110Z,3.00
2023-01-13T14:33:57.394Z,1.98
2023-01-13T14:36:33.276Z,2.38
2023-01-13T14:39:03.174Z,2.20
2023-01-13T14:41:36.850Z,2.40
2023-01-13T14:44:26.955Z,2.13
2023-01-13T14:46:56.627Z,2.13
2023-01-13T14:49:30.524Z,2.33
2023-01-13T14:52:07.916Z,2.53
2023-01-13T14:54:45.925Z,2.33
2023-01-13T14:57:32.953Z,2.30
2023-01-13T15:00:25.356Z,1.88
2023-01-13T15:02:58.229Z,2.08
2023-01-13T15:05:30.121Z,1.80
2023-01-13T15:08:12.261Z,2.10
2023-01-13T15:10:48.796Z,2.10
2023-01-13T15:13:31.920Z,2.20
2023-01-13T15:16:00.938Z,2.30
2023-01-13T15:18:28.876Z,2.45
2023-01-13T15:20:55.705Z,2.38
2023-01-13T15:23:22.714Z,1.88
2023-01-13T15:25:49.694Z,2.13
2023-01-13T15:28:24.799Z,2.63
2023-01-13T15:30:53.501Z,2.15
2023-01-13T15:33:22.138Z,2.13
2023-01-13T15:35:51.543Z,2.20
2023-01-13T15:38:21.635Z,2.08
2023-01-13T15:40:50.055Z,2.53
2023-01-13T15:43:37.350Z,2.17
2023-01-13T15:46:19.937Z,2.50
2023-01-13T15:48:52.986Z,2.20
2023-01-13T15:51:21.579Z,2.20
2023-01-13T15:53:48.732Z,2.80
2023-01-13T15:56:28.887Z,2.20
2023-01-13T15:58:57.216Z,1.90
2023-01-13T16:01:24.286Z,3.13
2023-01-13T16:03:52.258Z,2.40
2023-01-13T16:06:23.111Z,2.45
2023-01-13T16:08:50.040Z,2.95
2023-01-13T16:11:16.939Z,2.70
2023-01-13T16:13:43.777Z,2.60
2023-01-13T16:16:20.476Z,2.40
2023-01-13T16:18:48.162Z,2.35
2023-01-13T16:21:16.013Z,2.28
2023-01-13T16:23:42.883Z,2.38
2023-01-13T16:26:24.889Z,2.38
2023-01-13T16:28:53.291Z,2.38
2023-01-13T16:31:32.208Z,2.30
2023-01-13T16:34:01.724Z,2.47
2023-01-13T16:36:34.985Z,2.15
2023-01-13T16:39:02.817Z,2.47
2023-01-13T16:41:29.675Z,2.55
2023-01-13T16:43:56.879Z,2.53
2023-01-13T16:46:23.764Z,1.85
2023-01-13T16:48:53.097Z,2.03
2023-01-13T16:51:21.045Z,1.80
2023-01-13T16:53:48.192Z,2.00
2023-01-13T16:56:30.631Z,1.73
2023-01-13T16:59:00.033Z,2.42
2023-01-13T17:01:32.822Z,2.05
2023-01-13T17:04:00.285Z,2.10
2023-01-13T17:06:42.689Z,2.15
2023-01-13T17:09:18.113Z,1.60
2023-01-13T17:11:45.339Z,2.83
2023-01-13T17:14:19.134Z,2.10
2023-01-13T17:16:47.060Z,2.25
2023-01-13T17:19:16.257Z,1.98
2023-01-13T17:21:43.441Z,2.40
2023-01-13T17:24:13.714Z,2.65
2023-01-13T17:26:44.126Z,2.10
2023-01-13T17:29:19.335Z,2.28
2023-01-13T17:31:46.238Z,1.80
2023-01-13T17:34:13.985Z,2.28
2023-01-13T17:36:43.368Z,2.15
2023-01-13T17:39:19.191Z,2.30
2023-01-13T17:41:46.456Z,2.40
2023-01-13T17:44:14.930Z,1.70
2023-01-13T17:46:43.115Z,1.50
2023-01-13T17:49:11.446Z,1.40
2023-01-13T17:51:38.263Z,1.30
2023-01-13T17:54:05.135Z,1.92
2023-01-13T17:56:32.000Z,1.98
2023-01-13T17:58:58.783Z,1.63
2023-01-13T18:01:30.734Z,2.15
2023-01-13T18:03:57.550Z,1.80
2023-01-13T18:06:24.527Z,1.95
2023-01-13T18:08:51.335Z,1.73
2023-01-13T18:11:20.595Z,2.05
2023-01-13T18:13:55.107Z,2.10
2023-01-13T18:16:22.616Z,1.85
2023-01-13T18:18:52.351Z,2.13
2023-01-13T18:21:41.785Z,2.00
2023-01-13T18:24:31.576Z,2.13
2023-01-13T18:27:17.399Z,2.08
2023-01-13T18:29:44.663Z,1.35
2023-01-13T18:32:11.858Z,1.70
2023-01-13T18:34:39.044Z,1.00
2023-01-13T18:37:08.263Z,1.30
2023-01-13T18:39:37.360Z,1.23
2023-01-13T18:42:23.716Z,1.90
2023-01-13T18:44:50.585Z,2.40
2023-01-13T18:47:19.056Z,1.73
2023-01-13T18:49:46.721Z,1.52
2023-01-13T18:52:13.766Z,1.83
2023-01-13T18:54:40.693Z,1.00
2023-01-13T18:57:07.569Z,1.13
2023-01-13T18:59:34.824Z,0.90
2023-01-13T19:02:07.261Z,0.70
2023-01-13T19:04:35.740Z,0.80
2023-01-13T19:07:02.585Z,1.00
2023-01-13T19:09:29.552Z,1.45
2023-01-13T19:11:57.691Z,1.73
2023-01-13T19:14:34.995Z,1.70
2023-01-13T19:17:08.897Z,1.80
2023-01-13T19:19:44.539Z,2.13
2023-01-13T19:22:13.458Z,1.77
2023-01-13T19:24:42.945Z,1.90
2023-01-13T19:27:10.491Z,1.85
2023-01-13T19:29:46.956Z,1.70
2023-01-13T19:32:19.943Z,1.48
2023-01-13T19:34:49.131Z,1.70
2023-01-13T19:37:16.057Z,1.58
2023-01-13T19:39:42.985Z,1.83
2023-01-13T19:42:30.681Z,1.58
2023-01-13T19:45:16.234Z,1.57
2023-01-13T19:47:45.310Z,1.50
2023-01-13T19:50:13.555Z,1.52
2023-01-13T19:52:41.426Z,1.67
2023-01-13T19:55:09.487Z,1.73
2023-01-13T19:57:39.606Z,1.73
2023-01-13T20:00:08.076Z,1.63
2023-01-13T20:02:47.663Z,1.70
2023-01-13T20:05:21.081Z,1.88
2023-01-13T20:07:49.342Z,2.00
2023-01-13T20:10:20.963Z,1.60
2023-01-13T20:12:47.955Z,1.80
2023-01-13T20:15:15.063Z,2.10
2023-01-13T20:17:43.097Z,1.95
2023-01-13T20:20:10.780Z,3.03
2023-01-13T20:22:38.723Z,2.95
2023-01-13T20:25:06.158Z,2.70
2023-01-13T20:27:33.030Z,3.17
2023-01-13T20:29:59.895Z,2.97
2023-01-13T20:32:26.678Z,2.78
2023-01-13T20:34:53.457Z,2.50
2023-01-13T20:37:20.275Z,2.35
2023-01-13T20:39:48.031Z,7.70
2023-01-13T20:42:30.161Z,4.07
2023-01-13T20:44:57.661Z,3.15
2023-01-13T20:47:25.356Z,2.60
2023-01-13T20:49:52.318Z,2.97
2023-01-13T20:52:19.294Z,6.10
2023-01-13T20:54:47.147Z,2.38
2023-01-13T20:57:14.003Z,1.90
2023-01-13T20:59:40.785Z,1.90
2023-01-13T21:02:14.276Z,2.03
2023-01-13T21:04:41.197Z,1.83
2023-01-13T21:07:08.382Z,2.25
2023-01-13T21:09:35.541Z,2.08
2023-01-13T21:12:22.310Z,2.10
2023-01-13T21:15:07.545Z,2.10
2023-01-13T21:17:52.984Z,2.25
2023-01-13T21:20:19.939Z,1.90
2023-01-13T21:22:48.079Z,2.10
2023-01-13T21:25:16.750Z,2.08
2023-01-13T21:27:46.405Z,2.17
2023-01-13T21:30:15.327Z,2.00
2023-01-13T21:32:44.220Z,2.05
2023-01-13T21:35:14.264Z,1.83
2023-01-13T21:37:42.800Z,2.30
2023-01-13T21:40:12.714Z,1.88
2023-01-13T21:42:58.612Z,2.05
2023-01-13T21:45:43.955Z,2.40
2023-01-13T21:48:12.019Z,2.25
2023-01-13T21:50:39.440Z,1.80
2023-01-13T21:53:07.959Z,1.83
2023-01-13T21:55:36.714Z,1.60
2023-01-13T21:58:13.166Z,2.40
2023-01-13T22:00:43.137Z,1.95
2023-01-13T22:03:12.198Z,2.00
2023-01-13T22:05:39.299Z,2.20
2023-01-13T22:08:06.486Z,2.05
2023-01-13T22:10:34.198Z,1.70
2023-01-13T22:13:22.788Z,1.85
2023-01-13T22:15:49.767Z,2.30
2023-01-13T22:18:18.309Z,1.92
2023-01-13T22:20:45.810Z,2.00
2023-01-13T22:23:12.575Z,2.40
2023-01-13T22:25:39.345Z,2.35
2023-01-13T22:28:08.536Z,2.30
2023-01-13T22:30:35.298Z,1.98
2023-01-13T22:33:02.011Z,2.10
2023-01-13T22:35:28.810Z,2.42
2023-01-13T22:37:55.600Z,2.05
2023-01-13T22:40:22.386Z,2.10
2023-01-13T22:42:49.142Z,2.03
2023-01-13T22:45:16.221Z,2.25
2023-01-13T22:47:45.915Z,2.00
2023-01-13T22:50:12.803Z,2.00
2023-01-13T22:52:39.763Z,2.88
2023-01-13T22:55:07.081Z,2.10
2023-01-13T22:57:36.446Z,2.50
2023-01-13T23:00:10.339Z,2.17
2023-01-13T23:02:38.396Z,1.70
2023-01-13T23:05:05.883Z,2.35
2023-01-13T23:07:32.706Z,2.10
2023-01-13T23:10:00.008Z,2.33
2023-01-13T23:12:26.889Z,1.90
2023-01-13T23:14:54.569Z,2.28
2023-01-13T23:17:21.279Z,1.70
2023-01-13T23:19:48.004Z,1.75
2023-01-13T23:22:15.599Z,2.25
2023-01-13T23:24:42.361Z,2.13
2023-01-13T23:27:09.080Z,2.00
2023-01-13T23:29:36.021Z,2.20
2023-01-13T23:32:02.722Z,1.98
2023-01-13T23:34:29.495Z,2.10
2023-01-13T23:36:56.410Z,1.90
2023-01-13T23:39:24.518Z,1.92
2023-01-13T23:41:52.303Z,2.13
2023-01-13T23:44:22.089Z,2.03
2023-01-13T23:46:49.044Z,2.03
2023-01-13T23:49:26.235Z,1.88
2023-01-13T23:51:53.193Z,1.90
2023-01-13T23:54:21.426Z,2.00
2023-01-13T23:56:52.484Z,2.30
2023-01-13T23:59:20.235Z,2.20
